Terminal Aerodrome Forecast
Issued by NWS

Home | Current Version | Previous Version | Graphics & Text | Print | Product List | Glossary On
Versions: 1 2 3 4 5 6 7 8 9 10 11 12 13 14 15 16 17
000
FTUS41 KCLE 251120
TAFFDY
TAF
KFDY 251120Z 2512/2612 23006KT P6SM BKN045
      TEMPO 2512/2515 4SM -TSRA BR BKN025CB
     FM251500 24008KT P6SM SCT045 BKN060
     FM251800 25012KT P6SM BKN045
      TEMPO 2520/2524 4SM TSRA BR OVC025CB
     FM260100 29005KT 5SM BR SCT025 BKN080
     FM260400 29005KT P6SM SCT250
     FM260800 30003KT 4SM BR SCT250=

USA.gov is the U.S. government's official web portal to all federal, state and local government web resources and services.